sensor_id;sensor_type;location;lat;lon;timestamp;P1;durP1;ratioP1;P2;durP2;ratioP2
16440;SDS011;8330;-33.858;151.184;2023-12-20T00:01:28;5.03;;;1.25;;
16440;SDS011;8330;-33.858;151.184;2023-12-20T00:03:59;4.95;;;1.15;;
16440;SDS011;8330;-33.858;151.184;2023-12-20T00:06:30;6.00;;;1.40;;
16440;SDS011;8330;-33.858;151.184;2023-12-20T00:09:01;5.18;;;1.00;;
16440;SDS011;8330;-33.858;151.184;2023-12-20T00:11:32;5.72;;;1.23;;
16440;SDS011;8330;-33.858;151.184;2023-12-20T00:14:04;6.72;;;1.50;;
16440;SDS011;8330;-33.858;151.184;2023-12-20T00:16:36;6.68;;;1.23;;
16440;SDS011;8330;-33.858;151.184;2023-12-20T00:19:07;5.38;;;1.33;;
16440;SDS011;8330;-33.858;151.184;2023-12-20T00:21:38;7.15;;;1.23;;
16440;SDS011;8330;-33.858;151.184;2023-12-20T00:24:08;3.42;;;0.88;;
16440;SDS011;8330;-33.858;151.184;2023-12-20T00:26:39;6.05;;;1.20;;
16440;SDS011;8330;-33.858;151.184;2023-12-20T00:29:12;6.00;;;1.40;;
16440;SDS011;8330;-33.858;151.184;2023-12-20T00:31:43;3.50;;;1.08;;
16440;SDS011;8330;-33.858;151.184;2023-12-20T00:34:14;6.45;;;1.08;;
16440;SDS011;8330;-33.858;151.184;2023-12-20T00:36:44;4.05;;;0.90;;
16440;SDS011;8330;-33.858;151.184;2023-12-20T00:39:16;6.35;;;1.17;;
16440;SDS011;8330;-33.858;151.184;2023-12-20T00:41:46;3.88;;;1.13;;
16440;SDS011;8330;-33.858;151.184;2023-12-20T00:44:19;5.22;;;1.40;;
16440;SDS011;8330;-33.858;151.184;2023-12-20T00:46:50;4.40;;;1.08;;
16440;SDS011;8330;-33.858;151.184;2023-12-20T00:49:21;7.55;;;1.20;;
16440;SDS011;8330;-33.858;151.184;2023-12-20T00:51:52;6.47;;;1.58;;
16440;SDS011;8330;-33.858;151.184;2023-12-20T00:54:23;6.03;;;1.20;;
16440;SDS011;8330;-33.858;151.184;2023-12-20T00:56:54;5.30;;;1.83;;
16440;SDS011;8330;-33.858;151.184;2023-12-20T00:59:27;7.13;;;1.10;;
16440;SDS011;8330;-33.858;151.184;2023-12-20T01:01:58;2.72;;;0.73;;
16440;SDS011;8330;-33.858;151.184;2023-12-20T01:04:29;6.45;;;1.08;;
16440;SDS011;8330;-33.858;151.184;2023-12-20T01:07:00;3.85;;;0.90;;
16440;SDS011;8330;-33.858;151.184;2023-12-20T01:09:30;6.40;;;1.15;;
16440;SDS011;8330;-33.858;151.184;2023-12-20T01:12:01;4.38;;;1.02;;
16440;SDS011;8330;-33.858;151.184;2023-12-20T01:14:34;4.97;;;1.05;;
16440;SDS011;8330;-33.858;151.184;2023-12-20T01:17:05;6.18;;;1.15;;
16440;SDS011;8330;-33.858;151.184;2023-12-20T01:19:36;5.38;;;1.30;;
16440;SDS011;8330;-33.858;151.184;2023-12-20T01:22:07;2.85;;;0.90;;
16440;SDS011;8330;-33.858;151.184;2023-12-20T01:24:38;4.47;;;1.25;;
16440;SDS011;8330;-33.858;151.184;2023-12-20T01:27:09;4.63;;;1.48;;
16440;SDS011;8330;-33.858;151.184;2023-12-20T01:29:42;6.70;;;1.30;;
16440;SDS011;8330;-33.858;151.184;2023-12-20T01:32:12;6.90;;;1.52;;
16440;SDS011;8330;-33.858;151.184;2023-12-20T01:34:54;4.45;;;1.08;;
16440;SDS011;8330;-33.858;151.184;2023-12-20T01:37:25;6.43;;;1.08;;
16440;SDS011;8330;-33.858;151.184;2023-12-20T01:39:55;4.47;;;1.02;;
16440;SDS011;8330;-33.858;151.184;2023-12-20T01:42:26;5.00;;;0.93;;
16440;SDS011;8330;-33.858;151.184;2023-12-20T01:44:59;4.85;;;1.10;;
16440;SDS011;8330;-33.858;151.184;2023-12-20T01:47:30;3.25;;;1.00;;
16440;SDS011;8330;-33.858;151.184;2023-12-20T01:50:01;4.65;;;1.15;;
16440;SDS011;8330;-33.858;151.184;2023-12-20T01:52:34;8.23;;;1.40;;
16440;SDS011;8330;-33.858;151.184;2023-12-20T01:55:05;6.05;;;1.20;;
16440;SDS011;8330;-33.858;151.184;2023-12-20T01:57:39;5.07;;;1.52;;
16440;SDS011;8330;-33.858;151.184;2023-12-20T02:00:13;7.45;;;1.20;;
16440;SDS011;8330;-33.858;151.184;2023-12-20T02:02:47;5.53;;;1.65;;
16440;SDS011;8330;-33.858;151.184;2023-12-20T02:05:19;7.07;;;1.90;;
16440;SDS011;8330;-33.858;151.184;2023-12-20T02:07:51;7.78;;;1.15;;
16440;SDS011;8330;-33.858;151.184;2023-12-20T02:10:22;6.82;;;1.42;;
16440;SDS011;8330;-33.858;151.184;2023-12-20T02:12:54;10.27;;;3.25;;
16440;SDS011;8330;-33.858;151.184;2023-12-20T02:15:27;6.68;;;1.50;;
16440;SDS011;8330;-33.858;151.184;2023-12-20T02:17:57;7.70;;;1.88;;
16440;SDS011;8330;-33.858;151.184;2023-12-20T02:20:28;6.10;;;1.48;;
16440;SDS011;8330;-33.858;151.184;2023-12-20T02:23:01;6.13;;;1.42;;
16440;SDS011;8330;-33.858;151.184;2023-12-20T02:25:32;4.50;;;1.60;;
16440;SDS011;8330;-33.858;151.184;2023-12-20T02:28:03;3.75;;;1.45;;
16440;SDS011;8330;-33.858;151.184;2023-12-20T02:30:35;5.78;;;1.50;;
16440;SDS011;8330;-33.858;151.184;2023-12-20T02:33:06;4.68;;;1.00;;
16440;SDS011;8330;-33.858;151.184;2023-12-20T02:35:39;4.22;;;1.40;;
16440;SDS011;8330;-33.858;151.184;2023-12-20T02:38:14;7.97;;;2.08;;
16440;SDS011;8330;-33.858;151.184;2023-12-20T02:40:44;5.32;;;2.22;;
16440;SDS011;8330;-33.858;151.184;2023-12-20T02:43:15;5.13;;;1.35;;
16440;SDS011;8330;-33.858;151.184;2023-12-20T02:45:46;6.25;;;1.40;;
16440;SDS011;8330;-33.858;151.184;2023-12-20T02:48:17;4.50;;;1.45;;
16440;SDS011;8330;-33.858;151.184;2023-12-20T02:50:48;4.70;;;1.40;;
16440;SDS011;8330;-33.858;151.184;2023-12-20T02:53:21;3.53;;;1.17;;
16440;SDS011;8330;-33.858;151.184;2023-12-20T02:55:52;5.38;;;1.17;;
16440;SDS011;8330;-33.858;151.184;2023-12-20T02:58:23;2.92;;;0.80;;
16440;SDS011;8330;-33.858;151.184;2023-12-20T03:00:53;4.45;;;1.00;;
16440;SDS011;8330;-33.858;151.184;2023-12-20T03:03:24;6.15;;;1.20;;
16440;SDS011;8330;-33.858;151.184;2023-12-20T03:05:55;3.72;;;1.08;;
16440;SDS011;8330;-33.858;151.184;2023-12-20T03:08:28;4.57;;;0.90;;
16440;SDS011;8330;-33.858;151.184;2023-12-20T03:10:59;5.55;;;1.20;;
16440;SDS011;8330;-33.858;151.184;2023-12-20T03:13:29;4.13;;;1.02;;
16440;SDS011;8330;-33.858;151.184;2023-12-20T03:16:00;5.32;;;1.30;;
16440;SDS011;8330;-33.858;151.184;2023-12-20T03:18:36;5.38;;;1.35;;
16440;SDS011;8330;-33.858;151.184;2023-12-20T03:21:07;4.65;;;1.20;;
16440;SDS011;8330;-33.858;151.184;2023-12-20T03:23:40;5.50;;;0.88;;
16440;SDS011;8330;-33.858;151.184;2023-12-20T03:26:11;6.32;;;1.77;;
16440;SDS011;8330;-33.858;151.184;2023-12-20T03:28:42;4.70;;;1.00;;
16440;SDS011;8330;-33.858;151.184;2023-12-20T03:31:14;3.78;;;1.08;;
16440;SDS011;8330;-33.858;151.184;2023-12-20T03:33:47;5.13;;;1.35;;
16440;SDS011;8330;-33.858;151.184;2023-12-20T03:36:19;5.82;;;1.10;;
16440;SDS011;8330;-33.858;151.184;2023-12-20T03:38:52;6.32;;;1.35;;
16440;SDS011;8330;-33.858;151.184;2023-12-20T03:41:23;6.10;;;1.30;;
16440;SDS011;8330;-33.858;151.184;2023-12-20T03:43:54;6.05;;;1.20;;
16440;SDS011;8330;-33.858;151.184;2023-12-20T03:46:24;5.78;;;1.35;;
16440;SDS011;8330;-33.858;151.184;2023-12-20T03:48:55;5.55;;;1.23;;
16440;SDS011;8330;-33.858;151.184;2023-12-20T03:51:26;5.90;;;1.30;;
16440;SDS011;8330;-33.858;151.184;2023-12-20T03:53:59;3.78;;;0.82;;
16440;SDS011;8330;-33.858;151.184;2023-12-20T03:56:30;5.03;;;1.25;;
16440;SDS011;8330;-33.858;151.184;2023-12-20T03:59:00;4.50;;;0.80;;
16440;SDS011;8330;-33.858;151.184;2023-12-20T04:01:31;5.53;;;1.10;;
16440;SDS011;8330;-33.858;151.184;2023-12-20T04:04:02;6.72;;;0.85;;
16440;SDS011;8330;-33.858;151.184;2023-12-20T04:06:33;4.00;;;0.80;;
16440;SDS011;8330;-33.858;151.184;2023-12-20T04:09:05;4.32;;;0.70;;
16440;SDS011;8330;-33.858;151.184;2023-12-20T04:11:38;2.47;;;0.75;;
16440;SDS011;8330;-33.858;151.184;2023-12-20T04:14:08;5.03;;;0.90;;
16440;SDS011;8330;-33.858;151.184;2023-12-20T04:16:39;3.45;;;0.70;;
16440;SDS011;8330;-33.858;151.184;2023-12-20T04:19:10;5.28;;;1.20;;
16440;SDS011;8330;-33.858;151.184;2023-12-20T04:21:41;4.32;;;0.80;;
16440;SDS011;8330;-33.858;151.184;2023-12-20T04:24:14;3.20;;;0.80;;
16440;SDS011;8330;-33.858;151.184;2023-12-20T04:26:45;2.83;;;0.52;;
16440;SDS011;8330;-33.858;151.184;2023-12-20T04:29:15;3.30;;;0.65;;
16440;SDS011;8330;-33.858;151.184;2023-12-20T04:31:46;2.95;;;0.88;;
16440;SDS011;8330;-33.858;151.184;2023-12-20T04:34:17;3.25;;;0.80;;
16440;SDS011;8330;-33.858;151.184;2023-12-20T04:36:48;1.75;;;0.80;;
16440;SDS011;8330;-33.858;151.184;2023-12-20T04:39:21;4.05;;;0.88;;
16440;SDS011;8330;-33.858;151.184;2023-12-20T04:41:52;2.10;;;0.65;;
16440;SDS011;8330;-33.858;151.184;2023-12-20T04:44:23;3.95;;;0.60;;
16440;SDS011;8330;-33.858;151.184;2023-12-20T04:46:53;2.25;;;0.70;;
16440;SDS011;8330;-33.858;151.184;2023-12-20T04:49:24;4.88;;;1.00;;
16440;SDS011;8330;-33.858;151.184;2023-12-20T04:51:55;4.03;;;1.05;;
16440;SDS011;8330;-33.858;151.184;2023-12-20T04:54:28;3.65;;;0.90;;
16440;SDS011;8330;-33.858;151.184;2023-12-20T04:56:59;4.13;;;1.30;;
16440;SDS011;8330;-33.858;151.184;2023-12-20T04:59:30;4.70;;;0.93;;
16440;SDS011;8330;-33.858;151.184;2023-12-20T05:02:00;4.57;;;1.15;;
16440;SDS011;8330;-33.858;151.184;2023-12-20T05:04:31;4.43;;;1.13;;
16440;SDS011;8330;-33.858;151.184;2023-12-20T05:07:02;2.60;;;0.73;;
16440;SDS011;8330;-33.858;151.184;2023-12-20T05:09:35;4.18;;;1.00;;
16440;SDS011;8330;-33.858;151.184;2023-12-20T05:12:06;3.72;;;1.23;;
16440;SDS011;8330;-33.858;151.184;2023-12-20T05:14:37;5.78;;;1.00;;
16440;SDS011;8330;-33.858;151.184;2023-12-20T05:17:07;5.20;;;3.80;;
16440;SDS011;8330;-33.858;151.184;2023-12-20T05:19:38;9.10;;;4.45;;
16440;SDS011;8330;-33.858;151.184;2023-12-20T05:22:09;3.97;;;1.55;;
16440;SDS011;8330;-33.858;151.184;2023-12-20T05:24:42;3.60;;;1.38;;
16440;SDS011;8330;-33.858;151.184;2023-12-20T05:27:13;5.13;;;1.58;;
16440;SDS011;8330;-33.858;151.184;2023-12-20T05:29:43;4.80;;;1.00;;
16440;SDS011;8330;-33.858;151.184;2023-12-20T05:32:14;2.50;;;0.73;;
16440;SDS011;8330;-33.858;151.184;2023-12-20T05:34:45;5.00;;;0.80;;
16440;SDS011;8330;-33.858;151.184;2023-12-20T05:37:16;4.90;;;1.10;;
16440;SDS011;8330;-33.858;151.184;2023-12-20T05:39:49;6.10;;;1.23;;
16440;SDS011;8330;-33.858;151.184;2023-12-20T05:42:19;6.72;;;0.90;;
16440;SDS011;8330;-33.858;151.184;2023-12-20T05:44:50;5.25;;;0.93;;
16440;SDS011;8330;-33.858;151.184;2023-12-20T05:47:21;3.80;;;0.90;;
16440;SDS011;8330;-33.858;151.184;2023-12-20T05:49:52;6.60;;;1.08;;
16440;SDS011;8330;-33.858;151.184;2023-12-20T05:52:23;5.70;;;0.90;;
16440;SDS011;8330;-33.858;151.184;2023-12-20T05:54:56;6.32;;;1.52;;
16440;SDS011;8330;-33.858;151.184;2023-12-20T05:57:27;4.57;;;1.00;;
16440;SDS011;8330;-33.858;151.184;2023-12-20T05:59:58;3.00;;;0.90;;
16440;SDS011;8330;-33.858;151.184;2023-12-20T06:02:29;9.63;;;1.30;;
16440;SDS011;8330;-33.858;151.184;2023-12-20T06:05:00;4.78;;;1.00;;
16440;SDS011;8330;-33.858;151.184;2023-12-20T06:07:31;5.03;;;1.23;;
16440;SDS011;8330;-33.858;151.184;2023-12-20T06:10:04;6.22;;;0.90;;
16440;SDS011;8330;-33.858;151.184;2023-12-20T06:12:35;4.93;;;1.17;;
16440;SDS011;8330;-33.858;151.184;2023-12-20T06:15:06;4.90;;;1.23;;
16440;SDS011;8330;-33.858;151.184;2023-12-20T06:17:38;5.57;;;1.27;;
16440;SDS011;8330;-33.858;151.184;2023-12-20T06:20:09;3.63;;;1.27;;
16440;SDS011;8330;-33.858;151.184;2023-12-20T06:22:40;7.50;;;1.58;;
16440;SDS011;8330;-33.858;151.184;2023-12-20T06:25:12;4.07;;;1.05;;
16440;SDS011;8330;-33.858;151.184;2023-12-20T06:27:43;5.38;;;1.10;;
16440;SDS011;8330;-33.858;151.184;2023-12-20T06:30:15;4.10;;;0.98;;
16440;SDS011;8330;-33.858;151.184;2023-12-20T06:32:45;8.88;;;1.40;;
16440;SDS011;8330;-33.858;151.184;2023-12-20T06:35:16;3.10;;;0.90;;
16440;SDS011;8330;-33.858;151.184;2023-12-20T06:37:47;5.22;;;1.30;;
16440;SDS011;8330;-33.858;151.184;2023-12-20T06:40:20;6.40;;;1.58;;
16440;SDS011;8330;-33.858;151.184;2023-12-20T06:42:51;5.45;;;1.33;;
16440;SDS011;8330;-33.858;151.184;2023-12-20T06:45:22;6.00;;;1.38;;
16440;SDS011;8330;-33.858;151.184;2023-12-20T06:47:53;5.75;;;1.10;;
16440;SDS011;8330;-33.858;151.184;2023-12-20T06:50:24;4.95;;;1.10;;
16440;SDS011;8330;-33.858;151.184;2023-12-20T06:52:55;6.28;;;1.90;;
16440;SDS011;8330;-33.858;151.184;2023-12-20T06:55:27;5.60;;;1.60;;
16440;SDS011;8330;-33.858;151.184;2023-12-20T06:57:57;4.72;;;1.55;;
16440;SDS011;8330;-33.858;151.184;2023-12-20T07:00:28;4.45;;;1.38;;
16440;SDS011;8330;-33.858;151.184;2023-12-20T07:02:59;5.35;;;1.10;;
16440;SDS011;8330;-33.858;151.184;2023-12-20T07:05:30;4.25;;;1.35;;
16440;SDS011;8330;-33.858;151.184;2023-12-20T07:08:01;2.28;;;1.10;;
16440;SDS011;8330;-33.858;151.184;2023-12-20T07:10:34;10.05;;;1.77;;
16440;SDS011;8330;-33.858;151.184;2023-12-20T07:13:05;5.63;;;1.40;;
16440;SDS011;8330;-33.858;151.184;2023-12-20T07:15:36;4.93;;;1.25;;
16440;SDS011;8330;-33.858;151.184;2023-12-20T07:18:07;6.10;;;1.48;;
16440;SDS011;8330;-33.858;151.184;2023-12-20T07:20:37;8.75;;;4.22;;
16440;SDS011;8330;-33.858;151.184;2023-12-20T07:23:09;5.47;;;2.28;;
16440;SDS011;8330;-33.858;151.184;2023-12-20T07:25:41;9.77;;;1.38;;
16440;SDS011;8330;-33.858;151.184;2023-12-20T07:28:12;7.10;;;1.83;;
16440;SDS011;8330;-33.858;151.184;2023-12-20T07:30:43;6.53;;;2.10;;
16440;SDS011;8330;-33.858;151.184;2023-12-20T07:33:14;3.60;;;1.42;;
16440;SDS011;8330;-33.858;151.184;2023-12-20T07:35:45;8.35;;;2.25;;
16440;SDS011;8330;-33.858;151.184;2023-12-20T07:38:17;4.85;;;1.40;;
16440;SDS011;8330;-33.858;151.184;2023-12-20T07:40:50;5.00;;;1.42;;
16440;SDS011;8330;-33.858;151.184;2023-12-20T07:43:21;3.38;;;1.30;;
16440;SDS011;8330;-33.858;151.184;2023-12-20T07:45:52;7.65;;;1.50;;
16440;SDS011;8330;-33.858;151.184;2023-12-20T07:48:23;7.13;;;1.70;;
16440;SDS011;8330;-33.858;151.184;2023-12-20T07:50:53;3.80;;;1.10;;
16440;SDS011;8330;-33.858;151.184;2023-12-20T07:53:24;3.92;;;1.20;;
16440;SDS011;8330;-33.858;151.184;2023-12-20T07:55:57;7.15;;;1.60;;
16440;SDS011;8330;-33.858;151.184;2023-12-20T07:58:28;3.47;;;0.98;;
16440;SDS011;8330;-33.858;151.184;2023-12-20T08:00:58;5.25;;;1.58;;
16440;SDS011;8330;-33.858;151.184;2023-12-20T08:03:29;6.03;;;1.50;;
16440;SDS011;8330;-33.858;151.184;2023-12-20T08:06:00;6.40;;;1.65;;
16440;SDS011;8330;-33.858;151.184;2023-12-20T08:08:30;7.18;;;1.88;;
16440;SDS011;8330;-33.858;151.184;2023-12-20T08:11:03;5.93;;;1.73;;
16440;SDS011;8330;-33.858;151.184;2023-12-20T08:13:34;6.93;;;1.42;;
16440;SDS011;8330;-33.858;151.184;2023-12-20T08:16:05;8.50;;;2.35;;
16440;SDS011;8330;-33.858;151.184;2023-12-20T08:18:36;6.47;;;1.48;;
16440;SDS011;8330;-33.858;151.184;2023-12-20T08:21:06;7.00;;;1.60;;
16440;SDS011;8330;-33.858;151.184;2023-12-20T08:23:37;5.00;;;1.25;;
16440;SDS011;8330;-33.858;151.184;2023-12-20T08:26:10;5.63;;;1.25;;
16440;SDS011;8330;-33.858;151.184;2023-12-20T08:28:41;4.22;;;1.13;;
16440;SDS011;8330;-33.858;151.184;2023-12-20T08:31:13;5.20;;;1.60;;
16440;SDS011;8330;-33.858;151.184;2023-12-20T08:33:45;9.00;;;2.83;;
16440;SDS011;8330;-33.858;151.184;2023-12-20T08:36:16;5.60;;;1.77;;
16440;SDS011;8330;-33.858;151.184;2023-12-20T08:38:47;9.15;;;2.10;;
16440;SDS011;8330;-33.858;151.184;2023-12-20T08:41:20;6.03;;;1.83;;
16440;SDS011;8330;-33.858;151.184;2023-12-20T08:43:51;3.97;;;1.60;;
16440;SDS011;8330;-33.858;151.184;2023-12-20T08:46:22;4.18;;;1.77;;
16440;SDS011;8330;-33.858;151.184;2023-12-20T08:48:52;4.55;;;0.90;;
16440;SDS011;8330;-33.858;151.184;2023-12-20T08:51:23;4.78;;;1.05;;
16440;SDS011;8330;-33.858;151.184;2023-12-20T08:53:54;5.95;;;1.38;;
16440;SDS011;8330;-33.858;151.184;2023-12-20T08:56:27;3.90;;;1.13;;
16440;SDS011;8330;-33.858;151.184;2023-12-20T08:58:57;3.95;;;1.65;;
16440;SDS011;8330;-33.858;151.184;2023-12-20T09:01:28;4.07;;;1.40;;
16440;SDS011;8330;-33.858;151.184;2023-12-20T09:03:59;7.10;;;1.90;;
16440;SDS011;8330;-33.858;151.184;2023-12-20T09:06:30;3.90;;;1.73;;
16440;SDS011;8330;-33.858;151.184;2023-12-20T09:09:01;4.72;;;1.80;;
16440;SDS011;8330;-33.858;151.184;2023-12-20T09:11:34;10.43;;;2.25;;
16440;SDS011;8330;-33.858;151.184;2023-12-20T09:14:05;10.57;;;2.85;;
16440;SDS011;8330;-33.858;151.184;2023-12-20T09:16:35;5.28;;;1.33;;
16440;SDS011;8330;-33.858;151.184;2023-12-20T09:19:06;4.68;;;1.35;;
16440;SDS011;8330;-33.858;151.184;2023-12-20T09:21:37;8.38;;;2.10;;
16440;SDS011;8330;-33.858;151.184;2023-12-20T09:24:08;12.68;;;4.57;;
16440;SDS011;8330;-33.858;151.184;2023-12-20T09:26:40;13.95;;;2.90;;
16440;SDS011;8330;-33.858;151.184;2023-12-20T09:29:11;5.82;;;1.73;;
16440;SDS011;8330;-33.858;151.184;2023-12-20T09:31:43;6.65;;;2.58;;
16440;SDS011;8330;-33.858;151.184;2023-12-20T09:34:15;7.82;;;2.10;;
16440;SDS011;8330;-33.858;151.184;2023-12-20T09:36:45;3.78;;;1.30;;
16440;SDS011;8330;-33.858;151.184;2023-12-20T09:39:17;6.13;;;1.27;;
16440;SDS011;8330;-33.858;151.184;2023-12-20T09:41:51;5.30;;;1.20;;
16440;SDS011;8330;-33.858;151.184;2023-12-20T09:44:29;6.70;;;1.50;;
16440;SDS011;8330;-33.858;151.184;2023-12-20T09:47:02;5.15;;;1.63;;
16440;SDS011;8330;-33.858;151.184;2023-12-20T09:49:33;8.00;;;2.58;;
16440;SDS011;8330;-33.858;151.184;2023-12-20T09:52:04;3.90;;;1.40;;
16440;SDS011;8330;-33.858;151.184;2023-12-20T09:54:36;5.03;;;1.95;;
16440;SDS011;8330;-33.858;151.184;2023-12-20T09:57:09;9.82;;;3.10;;
16440;SDS011;8330;-33.858;151.184;2023-12-20T09:59:40;4.88;;;1.45;;
16440;SDS011;8330;-33.858;151.184;2023-12-20T10:02:12;3.50;;;1.70;;
16440;SDS011;8330;-33.858;151.184;2023-12-20T10:04:46;4.43;;;1.30;;
16440;SDS011;8330;-33.858;151.184;2023-12-20T10:07:17;5.95;;;1.83;;
16440;SDS011;8330;-33.858;151.184;2023-12-20T10:09:48;4.45;;;1.23;;
16440;SDS011;8330;-33.858;151.184;2023-12-20T10:12:25;5.45;;;1.73;;
16440;SDS011;8330;-33.858;151.184;2023-12-20T10:14:58;6.22;;;1.80;;
16440;SDS011;8330;-33.858;151.184;2023-12-20T10:17:28;5.93;;;1.65;;
16440;SDS011;8330;-33.858;151.184;2023-12-20T10:20:00;5.78;;;1.55;;
16440;SDS011;8330;-33.858;151.184;2023-12-20T10:22:35;7.22;;;1.88;;
16440;SDS011;8330;-33.858;151.184;2023-12-20T10:25:07;2.88;;;1.17;;
16440;SDS011;8330;-33.858;151.184;2023-12-20T10:27:40;4.93;;;1.33;;
16440;SDS011;8330;-33.858;151.184;2023-12-20T10:30:11;5.35;;;1.52;;
16440;SDS011;8330;-33.858;151.184;2023-12-20T10:32:42;3.83;;;1.40;;
16440;SDS011;8330;-33.858;151.184;2023-12-20T10:35:13;6.22;;;1.55;;
16440;SDS011;8330;-33.858;151.184;2023-12-20T10:37:46;4.43;;;1.40;;
16440;SDS011;8330;-33.858;151.184;2023-12-20T10:40:16;7.75;;;1.20;;
16440;SDS011;8330;-33.858;151.184;2023-12-20T10:42:49;3.60;;;1.30;;
16440;SDS011;8330;-33.858;151.184;2023-12-20T10:45:21;5.05;;;1.30;;
16440;SDS011;8330;-33.858;151.184;2023-12-20T10:47:52;6.47;;;1.42;;
16440;SDS011;8330;-33.858;151.184;2023-12-20T10:50:25;5.95;;;1.40;;
16440;SDS011;8330;-33.858;151.184;2023-12-20T10:52:57;3.33;;;1.38;;
16440;SDS011;8330;-33.858;151.184;2023-12-20T10:55:28;3.15;;;1.13;;
16440;SDS011;8330;-33.858;151.184;2023-12-20T10:58:01;3.58;;;1.35;;
16440;SDS011;8330;-33.858;151.184;2023-12-20T11:00:36;5.32;;;1.13;;
16440;SDS011;8330;-33.858;151.184;2023-12-20T11:03:10;5.18;;;1.20;;
16440;SDS011;8330;-33.858;151.184;2023-12-20T11:05:43;3.33;;;1.20;;
16440;SDS011;8330;-33.858;151.184;2023-12-20T11:08:20;9.68;;;1.38;;
16440;SDS011;8330;-33.858;151.184;2023-12-20T11:11:09;7.43;;;1.60;;
16440;SDS011;8330;-33.858;151.184;2023-12-20T11:13:53;4.65;;;1.30;;
16440;SDS011;8330;-33.858;151.184;2023-12-20T11:16:28;3.20;;;1.13;;
16440;SDS011;8330;-33.858;151.184;2023-12-20T11:19:04;2.75;;;1.00;;
16440;SDS011;8330;-33.858;151.184;2023-12-20T11:21:35;4.65;;;1.35;;
16440;SDS011;8330;-33.858;151.184;2023-12-20T11:24:06;4.50;;;1.10;;
16440;SDS011;8330;-33.858;151.184;2023-12-20T11:26:38;4.57;;;1.23;;
16440;SDS011;8330;-33.858;151.184;2023-12-20T11:29:34;3.83;;;1.10;;
16440;SDS011;8330;-33.858;151.184;2023-12-20T11:35:00;4.82;;;0.90;;
16440;SDS011;8330;-33.858;151.184;2023-12-20T11:37:45;2.42;;;0.70;;
16440;SDS011;8330;-33.858;151.184;2023-12-20T11:40:16;4.38;;;1.15;;
16440;SDS011;8330;-33.858;151.184;2023-12-20T11:42:48;4.30;;;0.98;;
16440;SDS011;8330;-33.858;151.184;2023-12-20T11:45:23;4.68;;;1.00;;
16440;SDS011;8330;-33.858;151.184;2023-12-20T11:47:55;2.90;;;0.88;;
16440;SDS011;8330;-33.858;151.184;2023-12-20T11:50:27;2.63;;;0.70;;
16440;SDS011;8330;-33.858;151.184;2023-12-20T11:52:58;2.13;;;0.80;;
16440;SDS011;8330;-33.858;151.184;2023-12-20T11:55:29;4.63;;;1.00;;
16440;SDS011;8330;-33.858;151.184;2023-12-20T11:58:00;2.83;;;0.90;;
16440;SDS011;8330;-33.858;151.184;2023-12-20T12:00:33;4.43;;;1.05;;
16440;SDS011;8330;-33.858;151.184;2023-12-20T12:03:07;4.35;;;1.08;;
16440;SDS011;8330;-33.858;151.184;2023-12-20T12:05:37;4.72;;;1.00;;
16440;SDS011;8330;-33.858;151.184;2023-12-20T12:08:08;3.80;;;1.00;;
16440;SDS011;8330;-33.858;151.184;2023-12-20T12:10:39;2.42;;;0.90;;
16440;SDS011;8330;-33.858;151.184;2023-12-20T12:13:10;2.25;;;0.88;;
16440;SDS011;8330;-33.858;151.184;2023-12-20T12:15:44;3.03;;;0.93;;
16440;SDS011;8330;-33.858;151.184;2023-12-20T12:18:16;3.30;;;1.00;;
16440;SDS011;8330;-33.858;151.184;2023-12-20T12:20:47;4.22;;;0.95;;
16440;SDS011;8330;-33.858;151.184;2023-12-20T12:23:22;3.83;;;0.68;;
16440;SDS011;8330;-33.858;151.184;2023-12-20T12:25:53;2.28;;;0.70;;
16440;SDS011;8330;-33.858;151.184;2023-12-20T12:28:26;3.08;;;0.70;;
16440;SDS011;8330;-33.858;151.184;2023-12-20T12:31:00;1.83;;;0.60;;
16440;SDS011;8330;-33.858;151.184;2023-12-20T12:33:31;3.40;;;0.70;;
16440;SDS011;8330;-33.858;151.184;2023-12-20T12:36:03;2.60;;;0.80;;
16440;SDS011;8330;-33.858;151.184;2023-12-20T12:38:34;2.60;;;0.80;;
16440;SDS011;8330;-33.858;151.184;2023-12-20T12:41:05;1.48;;;0.75;;
16440;SDS011;8330;-33.858;151.184;2023-12-20T12:43:36;2.05;;;0.60;;
16440;SDS011;8330;-33.858;151.184;2023-12-20T12:46:09;1.30;;;0.57;;
16440;SDS011;8330;-33.858;151.184;2023-12-20T12:48:40;3.47;;;0.88;;
16440;SDS011;8330;-33.858;151.184;2023-12-20T12:51:11;0.93;;;0.45;;
16440;SDS011;8330;-33.858;151.184;2023-12-20T12:53:42;1.45;;;0.77;;
16440;SDS011;8330;-33.858;151.184;2023-12-20T12:56:13;2.08;;;0.93;;
16440;SDS011;8330;-33.858;151.184;2023-12-20T12:58:44;2.30;;;0.80;;
16440;SDS011;8330;-33.858;151.184;2023-12-20T13:01:17;4.22;;;0.95;;
16440;SDS011;8330;-33.858;151.184;2023-12-20T13:03:48;2.35;;;0.80;;
16440;SDS011;8330;-33.858;151.184;2023-12-20T13:06:18;3.47;;;1.10;;
16440;SDS011;8330;-33.858;151.184;2023-12-20T13:08:49;2.78;;;0.80;;
16440;SDS011;8330;-33.858;151.184;2023-12-20T13:11:20;2.30;;;0.73;;
16440;SDS011;8330;-33.858;151.184;2023-12-20T13:13:51;1.90;;;0.80;;
16440;SDS011;8330;-33.858;151.184;2023-12-20T13:16:24;2.80;;;1.00;;
16440;SDS011;8330;-33.858;151.184;2023-12-20T13:19:00;4.10;;;0.80;;
16440;SDS011;8330;-33.858;151.184;2023-12-20T13:21:31;1.30;;;0.73;;
16440;SDS011;8330;-33.858;151.184;2023-12-20T13:24:02;1.58;;;0.90;;
16440;SDS011;8330;-33.858;151.184;2023-12-20T13:26:33;3.17;;;0.80;;
16440;SDS011;8330;-33.858;151.184;2023-12-20T13:29:04;1.70;;;0.45;;
16440;SDS011;8330;-33.858;151.184;2023-12-20T13:31:36;1.13;;;0.52;;
16440;SDS011;8330;-33.858;151.184;2023-12-20T13:34:08;2.72;;;0.60;;
16440;SDS011;8330;-33.858;151.184;2023-12-20T13:36:39;1.17;;;0.50;;
16440;SDS011;8330;-33.858;151.184;2023-12-20T13:39:12;1.13;;;0.60;;
16440;SDS011;8330;-33.858;151.184;2023-12-20T13:41:43;1.92;;;0.70;;
16440;SDS011;8330;-33.858;151.184;2023-12-20T13:44:14;1.10;;;0.57;;
16440;SDS011;8330;-33.858;151.184;2023-12-20T13:46:47;1.85;;;0.60;;
16440;SDS011;8330;-33.858;151.184;2023-12-20T13:49:18;1.38;;;0.60;;
16440;SDS011;8330;-33.858;151.184;2023-12-20T13:51:51;2.78;;;0.68;;
16440;SDS011;8330;-33.858;151.184;2023-12-20T13:54:23;0.98;;;0.47;;
16440;SDS011;8330;-33.858;151.184;2023-12-20T13:56:54;1.45;;;0.45;;
16440;SDS011;8330;-33.858;151.184;2023-12-20T13:59:26;1.45;;;0.60;;
16440;SDS011;8330;-33.858;151.184;2023-12-20T14:01:58;1.73;;;0.47;;
16440;SDS011;8330;-33.858;151.184;2023-12-20T14:04:29;1.33;;;0.50;;
16440;SDS011;8330;-33.858;151.184;2023-12-20T14:07:00;1.38;;;0.57;;
16440;SDS011;8330;-33.858;151.184;2023-12-20T14:09:31;0.98;;;0.30;;
16440;SDS011;8330;-33.858;151.184;2023-12-20T14:12:02;1.65;;;0.55;;
16440;SDS011;8330;-33.858;151.184;2023-12-20T14:14:35;0.65;;;0.30;;
16440;SDS011;8330;-33.858;151.184;2023-12-20T14:17:07;1.20;;;0.40;;
16440;SDS011;8330;-33.858;151.184;2023-12-20T14:19:38;1.50;;;0.52;;
16440;SDS011;8330;-33.858;151.184;2023-12-20T14:22:09;1.08;;;0.30;;
16440;SDS011;8330;-33.858;151.184;2023-12-20T14:24:43;3.42;;;0.43;;
16440;SDS011;8330;-33.858;151.184;2023-12-20T14:27:14;3.13;;;0.57;;
16440;SDS011;8330;-33.858;151.184;2023-12-20T14:29:47;1.00;;;0.30;;
16440;SDS011;8330;-33.858;151.184;2023-12-20T14:32:20;2.40;;;0.50;;
16440;SDS011;8330;-33.858;151.184;2023-12-20T14:34:52;0.80;;;0.40;;
16440;SDS011;8330;-33.858;151.184;2023-12-20T14:37:23;1.35;;;0.40;;
16440;SDS011;8330;-33.858;151.184;2023-12-20T14:39:54;1.75;;;0.50;;
16440;SDS011;8330;-33.858;151.184;2023-12-20T14:42:24;3.03;;;0.65;;
16440;SDS011;8330;-33.858;151.184;2023-12-20T14:44:55;0.60;;;0.40;;
16440;SDS011;8330;-33.858;151.184;2023-12-20T14:47:28;1.85;;;0.30;;
16440;SDS011;8330;-33.858;151.184;2023-12-20T14:49:59;2.38;;;0.32;;